Time;durP1;ratioP1;P1;durP2;ratioP2;P2;SDS_P1;SDS_P2;PMS_P1;PMS_P2;Temp;Humidity;BMP_temperature;BMP_pressure;BME280_temperature;BME280_humidity;BME280_pressure;Samples;Min_cycle;Max_cycle;Signal;HPM_P1;HPM_P2
2023/04/15 05:00:25;;;;;;;;;0.00;0.00;;;;;;;;5947788;22;45366;-68
2023/04/15 05:02:50;;;;;;;;;2.00;1.00;;;;;;;;5013734;28;46822;-69
2023/04/15 05:05:15;;;;;;;;;0.00;0.00;;;;;;;;5018025;28;45407;-68
2023/04/15 05:07:42;;;;;;;;;0.00;0.00;;;;;;;;5036236;28;45388;-69
2023/04/15 05:10:07;;;;;;;;;0.00;0.00;;;;;;;;5037229;28;45423;-69
2023/04/15 05:12:32;;;;;;;;;0.00;0.00;;;;;;;;5037736;28;46201;-69
2023/04/15 05:14:57;;;;;;;;;0.33;0.00;;;;;;;;5038501;28;45554;-68
2023/04/15 05:17:23;;;;;;;;;0.00;0.00;;;;;;;;5038482;28;45498;-69
2023/04/15 05:19:48;;;;;;;;;1.00;0.00;;;;;;;;5034105;28;45559;-69
2023/04/15 05:22:13;;;;;;;;;1.00;1.00;;;;;;;;5039100;28;45490;-69
2023/04/15 05:24:38;;;;;;;;;0.00;0.00;;;;;;;;5038571;28;45403;-68
2023/04/15 05:27:03;;;;;;;;;1.00;1.00;;;;;;;;5036324;28;45501;-69
2023/04/15 05:29:29;;;;;;;;;1.33;1.33;;;;;;;;5020670;28;45534;-69
2023/04/15 05:31:54;;;;;;;;;1.00;1.00;;;;;;;;5038296;28;45469;-69
2023/04/15 05:34:20;;;;;;;;;3.00;1.33;;;;;;;;5038377;28;45344;-69
2023/04/15 05:36:45;;;;;;;;;2.67;2.00;;;;;;;;5034568;28;46695;-69
2023/04/15 05:39:10;;;;;;;;;3.00;3.00;;;;;;;;5036768;28;45429;-69
2023/04/15 05:41:36;;;;;;;;;5.00;3.00;;;;;;;;5040077;28;45909;-69
2023/04/15 05:44:02;;;;;;;;;2.00;2.00;;;;;;;;5038123;28;45245;-70
2023/04/15 05:46:27;;;;;;;;;2.33;2.00;;;;;;;;5040240;28;45386;-68
2023/04/15 05:48:52;;;;;;;;;3.33;3.00;;;;;;;;5038304;28;45569;-69
2023/04/15 05:51:17;;;;;;;;;3.00;3.00;;;;;;;;5038389;28;46171;-69
2023/04/15 05:53:42;;;;;;;;;2.00;2.00;;;;;;;;5036501;28;45258;-69
2023/04/15 05:56:08;;;;;;;;;2.00;2.00;;;;;;;;5038293;28;45514;-69
2023/04/15 05:58:33;;;;;;;;;2.00;2.00;;;;;;;;5039587;28;45286;-69
2023/04/15 06:00:58;;;;;;;;;2.00;2.00;;;;;;;;5039971;28;45483;-69
2023/04/15 06:03:24;;;;;;;;;4.33;2.67;;;;;;;;5037685;28;45268;-68
2023/04/15 06:05:49;;;;;;;;;2.00;2.00;;;;;;;;5036368;28;45408;-69
2023/04/15 06:08:14;;;;;;;;;1.00;1.00;;;;;;;;5038150;28;45267;-69
2023/04/15 06:10:40;;;;;;;;;1.00;1.00;;;;;;;;5039535;28;45205;-69
2023/04/15 06:13:06;;;;;;;;;1.00;1.00;;;;;;;;5036372;28;45771;-69
2023/04/15 06:15:31;;;;;;;;;1.00;1.00;;;;;;;;5038080;28;45336;-69
2023/04/15 06:17:56;;;;;;;;;1.00;1.00;;;;;;;;5038206;28;45323;-69
2023/04/15 06:20:22;;;;;;;;;3.67;2.00;;;;;;;;5038040;28;45361;-69
2023/04/15 06:22:48;;;;;;;;;2.00;2.00;;;;;;;;5037805;28;45323;-69
2023/04/15 06:25:13;;;;;;;;;2.00;2.00;;;;;;;;5020004;28;45289;-69
2023/04/15 06:27:38;;;;;;;;;3.00;3.00;;;;;;;;5034787;28;45491;-69
2023/04/15 06:30:04;;;;;;;;;2.00;2.00;;;;;;;;5038450;28;45230;-70
2023/04/15 06:32:29;;;;;;;;;3.00;2.00;;;;;;;;5040921;28;45368;-69
2023/04/15 06:34:55;;;;;;;;;3.33;2.33;;;;;;;;5041702;28;45272;-70
2023/04/15 06:37:20;;;;;;;;;4.00;2.67;;;;;;;;5021809;28;45311;-70
2023/04/15 06:39:45;;;;;;;;;4.00;3.00;;;;;;;;5040912;28;45249;-70
2023/04/15 06:42:11;;;;;;;;;2.00;2.00;;;;;;;;5040387;28;45579;-71
2023/04/15 06:44:36;;;;;;;;;2.00;2.00;;;;;;;;5039251;28;45518;-71
2023/04/15 06:47:01;;;;;;;;;2.67;2.67;;;;;;;;5041806;28;45261;-71
2023/04/15 06:49:26;;;;;;;;;2.00;2.00;;;;;;;;5041121;28;46129;-71
2023/04/15 06:51:52;;;;;;;;;1.00;1.00;;;;;;;;5041409;28;45407;-71
2023/04/15 06:54:17;;;;;;;;;2.00;2.00;;;;;;;;5036726;28;45329;-71
2023/04/15 06:56:42;;;;;;;;;2.00;2.00;;;;;;;;5039055;28;45319;-72
2023/04/15 06:59:07;;;;;;;;;3.00;1.67;;;;;;;;5039087;28;46073;-71
2023/04/15 07:01:33;;;;;;;;;2.00;2.00;;;;;;;;5038922;28;45347;-70
2023/04/15 07:03:58;;;;;;;;;5.00;3.00;;;;;;;;5039667;28;45636;-70
2023/04/15 07:06:23;;;;;;;;;2.67;2.00;;;;;;;;5040510;28;45404;-70
2023/04/15 07:08:48;;;;;;;;;2.00;2.00;;;;;;;;5039852;28;46336;-70
2023/04/15 07:11:13;;;;;;;;;2.00;2.00;;;;;;;;5039519;28;45510;-70
2023/04/15 07:13:39;;;;;;;;;2.00;2.00;;;;;;;;5039818;28;45392;-70
2023/04/15 07:16:04;;;;;;;;;2.00;1.67;;;;;;;;5040517;28;45482;-70
2023/04/15 07:18:29;;;;;;;;;2.00;2.00;;;;;;;;5037601;28;45505;-70
2023/04/15 07:20:55;;;;;;;;;3.33;2.00;;;;;;;;5037627;28;45463;-71
2023/04/15 07:23:20;;;;;;;;;2.00;2.00;;;;;;;;5037380;28;45567;-69
2023/04/15 07:25:46;;;;;;;;;1.67;1.67;;;;;;;;5038293;28;45420;-69
2023/04/15 07:28:11;;;;;;;;;2.00;2.00;;;;;;;;5038873;28;47203;-70
2023/04/15 07:30:36;;;;;;;;;2.67;2.67;;;;;;;;5037472;28;45311;-59
2023/04/15 07:33:02;;;;;;;;;2.00;2.00;;;;;;;;5033846;28;45680;-58
2023/04/15 07:35:28;;;;;;;;;2.00;2.00;;;;;;;;5029899;28;45720;-56
2023/04/15 07:37:53;;;;;;;;;2.00;1.00;;;;;;;;5035963;28;45600;-56
2023/04/15 07:40:18;;;;;;;;;2.00;2.00;;;;;;;;5036431;28;45467;-57
2023/04/15 07:42:44;;;;;;;;;4.00;2.00;;;;;;;;5032935;28;45354;-56
2023/04/15 07:45:09;;;;;;;;;1.67;1.00;;;;;;;;5037750;28;45265;-57
2023/04/15 07:47:35;;;;;;;;;0.33;0.00;;;;;;;;5040534;28;46283;-57
2023/04/15 07:50:01;;;;;;;;;1.00;1.00;;;;;;;;5037196;28;45531;-57
2023/04/15 07:52:26;;;;;;;;;1.00;0.00;;;;;;;;5014065;28;45331;-56
2023/04/15 07:54:51;;;;;;;;;1.00;1.00;;;;;;;;5039809;28;45303;-56
2023/04/15 07:57:17;;;;;;;;;1.00;1.00;;;;;;;;5039660;28;46312;-56
2023/04/15 07:59:42;;;;;;;;;0.00;0.00;;;;;;;;5039417;28;45451;-56
2023/04/15 08:02:08;;;;;;;;;0.00;0.00;;;;;;;;5029514;28;45438;-58
2023/04/15 08:04:33;;;;;;;;;0.00;0.00;;;;;;;;5037100;28;46180;-58
2023/04/15 08:06:58;;;;;;;;;0.00;0.00;;;;;;;;5040244;28;45439;-59
2023/04/15 08:09:24;;;;;;;;;2.00;0.00;;;;;;;;5036567;28;45590;-58
2023/04/15 08:11:52;;;;;;;;;4.00;0.00;;;;;;;;5039925;28;45342;-58
2023/04/15 08:14:17;;;;;;;;;0.00;0.00;;;;;;;;5029618;28;45417;-58
2023/04/15 08:16:42;;;;;;;;;0.00;0.00;;;;;;;;5028640;28;46372;-58
2023/04/15 08:19:08;;;;;;;;;0.00;0.00;;;;;;;;5034102;28;45373;-58
2023/04/15 08:21:33;;;;;;;;;1.00;0.00;;;;;;;;5034592;28;45240;-58
2023/04/15 08:23:59;;;;;;;;;0.00;0.00;;;;;;;;5029752;28;45317;-58
2023/04/15 08:26:24;;;;;;;;;0.67;0.67;;;;;;;;5038516;28;46192;-58
2023/04/15 08:28:50;;;;;;;;;0.00;0.00;;;;;;;;5037783;28;45566;-58
2023/04/15 08:31:15;;;;;;;;;0.00;0.00;;;;;;;;5033707;28;45591;-58
2023/04/15 08:33:41;;;;;;;;;0.00;0.00;;;;;;;;5038096;28;46030;-58
2023/04/15 08:36:06;;;;;;;;;0.33;0.33;;;;;;;;5035267;28;45797;-58
2023/04/15 08:38:31;;;;;;;;;1.00;1.00;;;;;;;;5037960;28;45575;-58
2023/04/15 08:40:57;;;;;;;;;0.67;0.67;;;;;;;;5017507;28;45931;-59
2023/04/15 08:43:25;;;;;;;;;0.00;0.00;;;;;;;;5019824;28;45468;-59
2023/04/15 08:45:51;;;;;;;;;0.00;0.00;;;;;;;;5040860;28;46358;-63
2023/04/15 08:48:16;;;;;;;;;1.00;0.00;;;;;;;;5039245;28;45428;-63
2023/04/15 08:50:42;;;;;;;;;1.00;0.67;;;;;;;;5028871;28;46497;-63
2023/04/15 08:53:07;;;;;;;;;0.67;0.67;;;;;;;;5034856;28;45444;-64
2023/04/15 08:55:35;;;;;;;;;2.00;1.00;;;;;;;;5036356;28;46503;-63
2023/04/15 08:58:00;;;;;;;;;0.00;0.00;;;;;;;;5007250;28;45518;-63
2023/04/15 09:00:25;;;;;;;;;1.00;1.00;;;;;;;;5037492;28;45372;-63
2023/04/15 09:02:51;;;;;;;;;1.00;1.00;;;;;;;;5035095;28;45527;-64
2023/04/15 09:05:16;;;;;;;;;1.33;1.33;;;;;;;;5037190;28;46120;-64
2023/04/15 09:07:41;;;;;;;;;1.00;0.67;;;;;;;;5035705;28;45135;-63
2023/04/15 09:10:07;;;;;;;;;2.33;1.00;;;;;;;;5035688;28;45586;-64
2023/04/15 09:12:33;;;;;;;;;1.00;1.00;;;;;;;;5033164;28;45631;-63
2023/04/15 09:14:59;;;;;;;;;0.00;0.00;;;;;;;;5016522;28;46218;-63
2023/04/15 09:17:25;;;;;;;;;0.00;0.00;;;;;;;;5035436;28;45465;-62
2023/04/15 09:20:06;;;;;;;;;1.00;1.00;;;;;;;;5039752;28;45470;-62
2023/04/15 09:22:31;;;;;;;;;2.33;1.00;;;;;;;;5034954;28;45447;-62
2023/04/15 09:24:57;;;;;;;;;0.00;0.00;;;;;;;;5032936;28;47054;-63
2023/04/15 09:27:22;;;;;;;;;1.00;1.00;;;;;;;;5035540;28;45318;-62
2023/04/15 09:29:49;;;;;;;;;0.67;0.67;;;;;;;;5032545;28;45265;-62
2023/04/15 09:32:15;;;;;;;;;1.67;1.00;;;;;;;;5031907;28;45466;-62
2023/04/15 09:34:40;;;;;;;;;2.67;2.00;;;;;;;;5037189;28;45348;-62
2023/04/15 09:37:06;;;;;;;;;1.00;1.00;;;;;;;;5034257;28;45297;-63
2023/04/15 09:39:50;;;;;;;;;1.00;1.00;;;;;;;;5035039;28;45474;-62
2023/04/15 09:42:22;;;;;;;;;1.00;1.00;;;;;;;;5034566;28;45656;-62
2023/04/15 09:44:48;;;;;;;;;0.00;0.00;;;;;;;;5035510;28;46135;-63
2023/04/15 09:47:33;;;;;;;;;2.00;1.00;;;;;;;;5035127;28;45503;-62
2023/04/15 09:49:59;;;;;;;;;1.33;1.33;;;;;;;;5032139;28;45373;-62
2023/04/15 09:52:24;;;;;;;;;2.00;1.67;;;;;;;;5039517;28;45273;-62
2023/04/15 09:54:51;;;;;;;;;1.00;1.00;;;;;;;;5033169;28;46260;-61
2023/04/15 09:57:17;;;;;;;;;2.00;2.00;;;;;;;;5034292;28;45386;-61
2023/04/15 09:59:42;;;;;;;;;3.00;2.00;;;;;;;;5038287;28;45404;-61
2023/04/15 10:02:07;;;;;;;;;3.67;2.00;;;;;;;;5015265;28;45485;-61
2023/04/15 10:04:38;;;;;;;;;1.33;1.33;;;;;;;;5037813;28;46925;-62
2023/04/15 10:07:05;;;;;;;;;3.00;1.33;;;;;;;;5037021;28;45269;-62
2023/04/15 10:09:32;;;;;;;;;3.00;3.00;;;;;;;;5040725;28;45683;-62
2023/04/15 10:11:58;;;;;;;;;1.00;1.00;;;;;;;;5043968;28;45566;-63
2023/04/15 10:14:31;;;;;;;;;2.33;2.33;;;;;;;;5030227;28;45414;-62
2023/04/15 10:17:00;;;;;;;;;2.00;2.00;;;;;;;;5006392;28;45881;-61
2023/04/15 10:19:26;;;;;;;;;1.00;1.00;;;;;;;;5040192;28;45376;-62
2023/04/15 10:21:52;;;;;;;;;2.00;2.00;;;;;;;;5011878;28;47963;-62
2023/04/15 10:24:18;;;;;;;;;1.67;0.00;;;;;;;;5009625;28;47666;-62
2023/04/15 10:26:43;;;;;;;;;1.33;1.33;;;;;;;;5035400;28;45379;-62
2023/04/15 10:29:09;;;;;;;;;2.00;2.00;;;;;;;;5039862;28;45566;-59
2023/04/15 10:31:37;;;;;;;;;2.00;1.00;;;;;;;;5038414;28;45424;-59
2023/04/15 10:34:05;;;;;;;;;2.33;2.33;;;;;;;;5031820;28;46144;-58
2023/04/15 10:36:30;;;;;;;;;1.00;1.00;;;;;;;;5036278;28;45416;-59
2023/04/15 10:38:55;;;;;;;;;1.00;1.00;;;;;;;;5036088;28;45504;-58
2023/04/15 10:41:22;;;;;;;;;3.00;2.00;;;;;;;;5037593;28;45218;-59
2023/04/15 10:43:49;;;;;;;;;2.00;2.00;;;;;;;;5030690;28;47123;-59
2023/04/15 10:46:34;;;;;;;;;1.00;1.00;;;;;;;;5035625;28;45437;-59
2023/04/15 10:49:05;;;;;;;;;2.00;2.00;;;;;;;;5017866;28;45674;-59
2023/04/15 10:51:31;;;;;;;;;1.67;1.67;;;;;;;;5039610;28;45439;-59
2023/04/15 10:53:58;;;;;;;;;2.00;2.00;;;;;;;;5037506;28;47097;-59
2023/04/15 10:56:23;;;;;;;;;1.00;1.00;;;;;;;;5028709;28;45511;-59
2023/04/15 10:58:48;;;;;;;;;2.00;2.00;;;;;;;;5040422;28;45388;-59
2023/04/15 11:01:13;;;;;;;;;2.67;2.33;;;;;;;;5039432;28;45553;-59
2023/04/15 11:03:41;;;;;;;;;2.50;1.00;;;;;;;;5037235;28;45641;-59
2023/04/15 11:06:06;;;;;;;;;2.00;2.00;;;;;;;;5039918;28;45486;-59
2023/04/15 11:08:50;;;;;;;;;1.33;1.33;;;;;;;;5040365;28;45296;-59
2023/04/15 11:11:16;;;;;;;;;2.00;2.00;;;;;;;;5013846;28;45447;-58
2023/04/15 11:13:51;;;;;;;;;2.00;2.00;;;;;;;;5034239;28;45969;-59
2023/04/15 11:16:16;;;;;;;;;2.67;2.67;;;;;;;;5039597;28;45420;-59
2023/04/15 11:18:52;;;;;;;;;2.33;2.33;;;;;;;;5037425;28;45293;-59
2023/04/15 11:21:17;;;;;;;;;3.00;3.00;;;;;;;;5040011;28;45483;-59
2023/04/15 11:23:45;;;;;;;;;2.00;2.00;;;;;;;;5040193;28;46218;-59
2023/04/15 11:26:11;;;;;;;;;2.67;2.67;;;;;;;;5038352;28;45348;-59
2023/04/15 11:28:37;;;;;;;;;2.67;2.67;;;;;;;;5039504;28;45428;-59
2023/04/15 11:31:07;;;;;;;;;3.00;3.00;;;;;;;;5021791;28;45420;-60
2023/04/15 11:33:32;;;;;;;;;4.00;4.00;;;;;;;;5040105;28;46184;-61
2023/04/15 11:35:57;;;;;;;;;4.00;4.00;;;;;;;;5037550;28;45479;-60
2023/04/15 11:38:22;;;;;;;;;4.33;4.33;;;;;;;;5037465;28;45688;-60
2023/04/15 11:40:49;;;;;;;;;3.00;3.00;;;;;;;;5038777;28;45453;-59
2023/04/15 11:43:15;;;;;;;;;7.00;5.33;;;;;;;;5037451;28;47125;-59
2023/04/15 11:45:48;;;;;;;;;2.67;2.67;;;;;;;;5036071;28;45357;-59
2023/04/15 11:48:13;;;;;;;;;3.67;3.67;;;;;;;;5029896;28;45494;-59
2023/04/15 11:50:39;;;;;;;;;4.33;4.33;;;;;;;;5032519;28;45487;-58
2023/04/15 11:53:06;;;;;;;;;2.00;2.00;;;;;;;;5036218;28;46210;-58
2023/04/15 11:55:40;;;;;;;;;2.00;2.00;;;;;;;;5039709;28;45433;-58
2023/04/15 11:58:09;;;;;;;;;3.33;1.67;;;;;;;;5038637;28;45348;-58
2023/04/15 12:00:34;;;;;;;;;1.33;1.33;;;;;;;;5039553;28;45558;-57
2023/04/15 12:03:12;;;;;;;;;3.00;3.00;;;;;;;;5037555;28;45484;-58
2023/04/15 12:05:57;;;;;;;;;3.33;3.33;;;;;;;;5035976;28;45613;-58
2023/04/15 12:08:22;;;;;;;;;3.00;3.00;;;;;;;;5036116;28;45483;-58
2023/04/15 12:10:47;;;;;;;;;3.67;3.67;;;;;;;;5032904;28;45486;-58
2023/04/15 12:13:13;;;;;;;;;3.00;2.33;;;;;;;;5017357;28;47309;-58
2023/04/15 12:15:38;;;;;;;;;3.00;3.00;;;;;;;;5036483;28;45490;-58
2023/04/15 12:18:04;;;;;;;;;3.00;3.00;;;;;;;;5037965;28;45424;-58
2023/04/15 12:20:30;;;;;;;;;5.67;3.33;;;;;;;;5033555;28;45405;-58
2023/04/15 12:23:04;;;;;;;;;2.67;2.67;;;;;;;;5039244;28;45659;-58
2023/04/15 12:25:38;;;;;;;;;3.00;3.00;;;;;;;;5033152;28;45366;-58
2023/04/15 12:28:09;;;;;;;;;3.67;3.00;;;;;;;;5039329;28;45356;-58
2023/04/15 12:30:35;;;;;;;;;3.00;2.00;;;;;;;;5033244;28;45312;-58
2023/04/15 12:33:01;;;;;;;;;3.00;3.00;;;;;;;;5030303;28;46354;-58
2023/04/15 12:35:27;;;;;;;;;2.67;2.00;;;;;;;;5039575;28;45440;-58
2023/04/15 12:37:52;;;;;;;;;1.67;1.67;;;;;;;;5039081;28;45362;-58
2023/04/15 12:40:18;;;;;;;;;2.00;2.00;;;;;;;;5038735;28;45419;-58
2023/04/15 12:42:43;;;;;;;;;2.00;2.00;;;;;;;;5039297;28;47105;-58
2023/04/15 12:45:09;;;;;;;;;3.00;3.00;;;;;;;;5038612;28;45443;-58
2023/04/15 12:47:35;;;;;;;;;2.33;2.33;;;;;;;;5039101;28;45343;-58
2023/04/15 12:50:00;;;;;;;;;0.67;0.67;;;;;;;;5019910;28;45416;-58
2023/04/15 12:52:25;;;;;;;;;3.33;2.33;;;;;;;;5043551;28;45423;-58
2023/04/15 12:54:51;;;;;;;;;1.00;1.00;;;;;;;;5023757;28;45397;-58
2023/04/15 12:57:17;;;;;;;;;1.00;1.00;;;;;;;;5040632;28;45337;-58
2023/04/15 12:59:42;;;;;;;;;1.67;1.67;;;;;;;;5035268;28;45637;-58
2023/04/15 13:02:07;;;;;;;;;3.00;2.67;;;;;;;;5038109;28;45354;-58
2023/04/15 13:04:32;;;;;;;;;4.33;1.00;;;;;;;;5042357;28;45229;-58
2023/04/15 13:06:58;;;;;;;;;3.33;3.00;;;;;;;;5048030;28;45393;-58
2023/04/15 13:09:23;;;;;;;;;4.00;2.67;;;;;;;;5038277;28;45292;-58
2023/04/15 13:11:48;;;;;;;;;3.00;2.67;;;;;;;;5027261;28;45461;-58
2023/04/15 13:14:13;;;;;;;;;3.00;3.00;;;;;;;;5020094;28;45623;-57
2023/04/15 13:16:38;;;;;;;;;2.00;2.00;;;;;;;;5043931;28;45269;-58
2023/04/15 13:19:04;;;;;;;;;2.67;2.67;;;;;;;;5044407;28;45491;-58
2023/04/15 13:21:31;;;;;;;;;1.67;1.67;;;;;;;;5045458;28;46230;-57
2023/04/15 13:23:56;;;;;;;;;2.33;2.00;;;;;;;;5039581;28;45436;-58
2023/04/15 13:26:21;;;;;;;;;3.67;3.00;;;;;;;;5031937;28;45336;-57
2023/04/15 13:28:47;;;;;;;;;3.00;3.00;;;;;;;;5039922;28;45320;-58
2023/04/15 13:31:12;;;;;;;;;2.33;2.33;;;;;;;;5020665;28;46223;-58
2023/04/15 13:33:37;;;;;;;;;3.00;2.00;;;;;;;;5036988;28;45347;-57
2023/04/15 13:36:02;;;;;;;;;4.00;3.67;;;;;;;;5038415;28;45545;-56
2023/04/15 13:38:27;;;;;;;;;4.00;3.00;;;;;;;;5038389;28;45582;-59
2023/04/15 13:40:53;;;;;;;;;2.00;2.00;;;;;;;;5037322;28;45431;-57
2023/04/15 13:43:18;;;;;;;;;3.00;3.00;;;;;;;;5038846;28;45437;-57
2023/04/15 13:45:46;;;;;;;;;2.00;2.00;;;;;;;;5041534;28;45466;-57
2023/04/15 13:48:11;;;;;;;;;3.00;3.00;;;;;;;;5021432;28;45470;-58
2023/04/15 13:50:37;;;;;;;;;4.00;3.00;;;;;;;;5034825;28;45412;-58
2023/04/15 13:53:02;;;;;;;;;3.00;3.00;;;;;;;;5037517;28;45419;-59
2023/04/15 13:55:27;;;;;;;;;3.00;2.00;;;;;;;;5040368;28;45458;-57
2023/04/15 13:57:52;;;;;;;;;3.00;3.00;;;;;;;;5041965;28;45494;-57
2023/04/15 14:00:17;;;;;;;;;1.67;1.33;;;;;;;;5019743;28;48071;-58
2023/04/15 14:02:43;;;;;;;;;1.00;1.00;;;;;;;;5038319;28;45757;-58
2023/04/15 14:05:09;;;;;;;;;3.00;3.00;;;;;;;;5016190;28;45833;-58
2023/04/15 14:07:34;;;;;;;;;3.00;3.00;;;;;;;;5043122;28;45289;-58
2023/04/15 14:09:59;;;;;;;;;2.33;1.67;;;;;;;;5044531;28;46230;-59
2023/04/15 14:12:25;;;;;;;;;1.00;1.00;;;;;;;;5037588;28;45250;-58
2023/04/15 14:14:50;;;;;;;;;3.00;3.00;;;;;;;;5038663;28;45288;-58
2023/04/15 14:17:15;;;;;;;;;2.00;2.00;;;;;;;;5037561;28;45400;-58
2023/04/15 14:19:40;;;;;;;;;3.00;3.00;;;;;;;;5048047;28;45574;-57
2023/04/15 14:22:05;;;;;;;;;4.33;3.67;;;;;;;;5019523;28;45474;-58
2023/04/15 14:24:31;;;;;;;;;4.00;3.00;;;;;;;;5035320;28;45356;-57
2023/04/15 14:26:57;;;;;;;;;2.00;2.00;;;;;;;;5036221;28;45448;-57
2023/04/15 14:29:22;;;;;;;;;2.67;2.67;;;;;;;;5018155;28;47259;-58
2023/04/15 14:31:48;;;;;;;;;3.33;3.33;;;;;;;;5037149;28;45351;-57
2023/04/15 14:34:14;;;;;;;;;3.67;3.67;;;;;;;;5018667;28;45377;-58
2023/04/15 14:36:40;;;;;;;;;4.00;4.00;;;;;;;;5035974;28;45471;-58
2023/04/15 14:39:05;;;;;;;;;3.33;3.00;;;;;;;;5034579;28;45594;-58
2023/04/15 14:41:31;;;;;;;;;3.33;3.33;;;;;;;;5035591;28;45466;-58
2023/04/15 14:43:56;;;;;;;;;2.67;2.67;;;;;;;;5038798;28;45320;-57
2023/04/15 14:46:21;;;;;;;;;1.33;0.67;;;;;;;;5034967;28;46436;-58
2023/04/15 14:48:46;;;;;;;;;5.00;3.33;;;;;;;;5035430;28;45323;-58
2023/04/15 14:51:11;;;;;;;;;3.00;2.67;;;;;;;;5037481;28;45293;-59
2023/04/15 14:53:37;;;;;;;;;3.00;3.00;;;;;;;;5040786;28;45292;-58
2023/04/15 14:56:02;;;;;;;;;3.00;3.00;;;;;;;;5038684;28;45455;-58
2023/04/15 14:58:27;;;;;;;;;5.33;4.00;;;;;;;;5041133;28;45229;-58
2023/04/15 15:00:52;;;;;;;;;5.00;4.00;;;;;;;;5040851;28;45297;-58
2023/04/15 15:03:18;;;;;;;;;4.00;4.00;;;;;;;;5039912;28;45544;-58
2023/04/15 15:05:44;;;;;;;;;3.67;3.67;;;;;;;;5023179;28;45402;-58
2023/04/15 15:08:10;;;;;;;;;1.00;1.00;;;;;;;;5041190;28;45366;-58
2023/04/15 15:10:36;;;;;;;;;4.67;4.67;;;;;;;;5041629;28;45297;-56
2023/04/15 15:13:01;;;;;;;;;8.00;6.00;;;;;;;;5022232;28;45496;-57
2023/04/15 15:15:27;;;;;;;;;4.00;4.00;;;;;;;;5040472;28;45364;-57
2023/04/15 15:17:52;;;;;;;;;5.00;3.33;;;;;;;;5043291;28;45260;-57
2023/04/15 15:20:18;;;;;;;;;3.33;3.33;;;;;;;;5040413;28;45296;-57
2023/04/15 15:22:43;;;;;;;;;4.00;4.00;;;;;;;;5042525;28;45484;-58
2023/04/15 15:25:08;;;;;;;;;5.00;4.67;;;;;;;;5040018;28;45472;-57
2023/04/15 15:27:33;;;;;;;;;3.33;3.33;;;;;;;;5042160;28;46299;-58
2023/04/15 15:29:59;;;;;;;;;2.67;2.67;;;;;;;;5042607;28;45294;-57
2023/04/15 15:32:24;;;;;;;;;3.67;3.67;;;;;;;;5039849;28;45459;-60
2023/04/15 15:34:49;;;;;;;;;4.67;4.33;;;;;;;;5040701;28;45515;-57
2023/04/15 15:37:14;;;;;;;;;3.67;3.00;;;;;;;;5039641;28;46138;-57
2023/04/15 15:39:40;;;;;;;;;2.00;2.00;;;;;;;;5041456;28;45288;-57
2023/04/15 15:42:06;;;;;;;;;3.00;1.67;;;;;;;;5033897;28;45372;-57
2023/04/15 15:44:32;;;;;;;;;4.67;2.00;;;;;;;;5018766;28;45237;-57
2023/04/15 15:46:57;;;;;;;;;4.00;3.67;;;;;;;;5039859;28;45493;-57
2023/04/15 15:49:24;;;;;;;;;4.33;2.67;;;;;;;;5040127;28;45281;-56
2023/04/15 15:51:50;;;;;;;;;3.67;3.67;;;;;;;;5040864;28;45360;-56
2023/04/15 15:54:15;;;;;;;;;6.00;4.67;;;;;;;;5039639;28;45337;-57
2023/04/15 15:56:40;;;;;;;;;5.00;4.00;;;;;;;;5040789;28;45465;-55
2023/04/15 15:59:06;;;;;;;;;4.33;4.33;;;;;;;;5021534;28;45742;-57
2023/04/15 16:01:31;;;;;;;;;6.00;5.00;;;;;;;;5021088;28;45440;-56
2023/04/15 16:03:56;;;;;;;;;4.00;4.00;;;;;;;;5037488;28;45551;-55
2023/04/15 16:06:21;;;;;;;;;5.33;5.00;;;;;;;;5029279;28;45320;-56
2023/04/15 16:08:47;;;;;;;;;5.33;3.67;;;;;;;;5037427;28;45302;-57
2023/04/15 16:11:12;;;;;;;;;6.00;4.67;;;;;;;;5020574;28;45282;-57
2023/04/15 16:13:37;;;;;;;;;7.00;6.67;;;;;;;;5033854;28;45291;-57
2023/04/15 16:16:02;;;;;;;;;6.33;5.67;;;;;;;;5028447;28;45533;-57
2023/04/15 16:18:27;;;;;;;;;6.00;6.00;;;;;;;;5035534;28;45225;-57
2023/04/15 16:20:53;;;;;;;;;6.33;6.33;;;;;;;;5029154;28;45335;-57
2023/04/15 16:23:18;;;;;;;;;6.33;6.33;;;;;;;;5039227;28;45725;-57
2023/04/15 16:25:44;;;;;;;;;7.00;5.33;;;;;;;;5039480;28;46115;-57
2023/04/15 16:28:10;;;;;;;;;6.67;6.00;;;;;;;;5038564;28;45399;-57
2023/04/15 16:30:36;;;;;;;;;5.33;5.00;;;;;;;;5021286;28;45431;-57
2023/04/15 16:33:02;;;;;;;;;8.67;6.67;;;;;;;;5039299;28;45297;-57
2023/04/15 16:35:27;;;;;;;;;5.67;5.67;;;;;;;;5037059;28;45902;-57
2023/04/15 16:37:52;;;;;;;;;5.33;5.33;;;;;;;;5035369;28;45494;-57
2023/04/15 16:40:17;;;;;;;;;7.67;6.67;;;;;;;;5028174;28;45309;-57
2023/04/15 16:42:42;;;;;;;;;6.33;6.33;;;;;;;;5033000;28;45208;-57
2023/04/15 16:45:08;;;;;;;;;7.33;7.33;;;;;;;;5044734;28;46266;-57
2023/04/15 16:47:33;;;;;;;;;8.67;8.67;;;;;;;;5045181;28;45221;-57
2023/04/15 16:49:58;;;;;;;;;11.33;10.33;;;;;;;;5046186;28;45331;-57
2023/04/15 16:52:23;;;;;;;;;9.33;9.33;;;;;;;;5050274;28;45327;-57
2023/04/15 16:54:49;;;;;;;;;12.67;9.67;;;;;;;;5025147;28;48072;-57
2023/04/15 16:57:14;;;;;;;;;11.33;11.33;;;;;;;;5038391;28;45612;-57
2023/04/15 16:59:39;;;;;;;;;9.33;9.33;;;;;;;;5045699;28;45404;-56
2023/04/15 17:02:04;;;;;;;;;12.33;12.33;;;;;;;;5038799;28;45285;-57
2023/04/15 17:04:30;;;;;;;;;8.00;7.67;;;;;;;;5040179;28;45879;-56
2023/04/15 17:06:55;;;;;;;;;11.67;11.67;;;;;;;;5051667;28;45296;-56
2023/04/15 17:09:20;;;;;;;;;15.00;12.00;;;;;;;;5027165;28;45565;-58
2023/04/15 17:11:45;;;;;;;;;16.00;13.33;;;;;;;;5037343;28;45364;-58
2023/04/15 17:14:11;;;;;;;;;13.67;13.67;;;;;;;;5047504;28;46154;-56
2023/04/15 17:16:36;;;;;;;;;12.33;12.33;;;;;;;;5043520;28;45340;-57
2023/04/15 17:19:02;;;;;;;;;13.00;12.00;;;;;;;;5034283;28;46785;-56
2023/04/15 17:21:27;;;;;;;;;11.33;11.33;;;;;;;;5033605;28;45736;-57
2023/04/15 17:23:52;;;;;;;;;13.00;12.00;;;;;;;;5034094;28;46432;-57
2023/04/15 17:26:17;;;;;;;;;13.33;13.00;;;;;;;;5033910;28;45595;-57
2023/04/15 17:28:43;;;;;;;;;12.00;12.00;;;;;;;;5031468;28;45375;-58
2023/04/15 17:31:08;;;;;;;;;13.33;13.33;;;;;;;;5029562;28;45963;-58
2023/04/15 17:33:33;;;;;;;;;16.00;14.67;;;;;;;;5033928;28;45991;-58
2023/04/15 17:35:58;;;;;;;;;13.00;13.00;;;;;;;;5028831;28;45368;-59
2023/04/15 17:38:24;;;;;;;;;14.33;12.67;;;;;;;;5027605;28;45614;-58
2023/04/15 17:40:49;;;;;;;;;14.33;13.00;;;;;;;;5032208;28;45313;-58
2023/04/15 17:43:14;;;;;;;;;11.67;11.67;;;;;;;;5030956;28;46891;-59
2023/04/15 17:45:40;;;;;;;;;12.67;12.67;;;;;;;;5027176;28;45403;-59
2023/04/15 17:48:05;;;;;;;;;13.33;13.33;;;;;;;;5028325;28;45495;-59
2023/04/15 17:50:30;;;;;;;;;13.33;11.33;;;;;;;;5030481;28;45769;-59
2023/04/15 17:52:57;;;;;;;;;14.33;14.33;;;;;;;;5012219;28;47422;-59
2023/04/15 17:55:23;;;;;;;;;16.33;14.33;;;;;;;;5027538;28;45538;-59
2023/04/15 17:57:48;;;;;;;;;17.33;12.67;;;;;;;;5031325;28;45934;-59
2023/04/15 18:00:13;;;;;;;;;13.33;13.33;;;;;;;;5034340;28;45348;-61
2023/04/15 18:02:39;;;;;;;;;13.00;13.00;;;;;;;;5030753;28;45974;-59
2023/04/15 18:05:04;;;;;;;;;12.00;12.00;;;;;;;;5027040;28;48979;-59
2023/04/15 18:07:30;;;;;;;;;13.00;13.00;;;;;;;;5033390;28;45660;-59
2023/04/15 18:09:55;;;;;;;;;14.67;14.67;;;;;;;;5029899;28;45485;-59
2023/04/15 18:12:20;;;;;;;;;16.00;15.00;;;;;;;;5032236;28;46076;-59
2023/04/15 18:14:45;;;;;;;;;18.33;16.33;;;;;;;;5030759;28;45484;-59
2023/04/15 18:17:13;;;;;;;;;17.00;15.33;;;;;;;;5036313;28;45308;-59
2023/04/15 18:19:38;;;;;;;;;17.00;15.67;;;;;;;;5027096;28;45562;-59
2023/04/15 18:22:03;;;;;;;;;17.67;16.33;;;;;;;;5027276;28;45435;-59
2023/04/15 18:24:29;;;;;;;;;19.00;17.33;;;;;;;;5032411;28;45591;-59
2023/04/15 18:26:55;;;;;;;;;16.33;15.33;;;;;;;;5035664;28;45363;-59
2023/04/15 18:29:20;;;;;;;;;19.33;16.67;;;;;;;;5020478;28;45616;-59
2023/04/15 18:31:45;;;;;;;;;16.67;15.00;;;;;;;;5039130;28;45356;-57
2023/04/15 18:34:11;;;;;;;;;14.67;14.67;;;;;;;;5039834;28;45348;-59
2023/04/15 18:36:36;;;;;;;;;17.33;17.33;;;;;;;;5038033;28;45355;-59
2023/04/15 18:39:02;;;;;;;;;18.00;18.00;;;;;;;;5040160;28;45304;-59
2023/04/15 18:41:28;;;;;;;;;19.67;16.67;;;;;;;;5038485;28;45386;-59
2023/04/15 18:43:54;;;;;;;;;21.00;18.33;;;;;;;;5023177;28;45667;-59
2023/04/15 18:46:20;;;;;;;;;21.67;19.00;;;;;;;;5037783;28;45340;-59
2023/04/15 18:48:45;;;;;;;;;20.67;19.00;;;;;;;;5039782;28;45490;-59
2023/04/15 18:51:10;;;;;;;;;19.00;18.00;;;;;;;;5039993;28;45270;-59
2023/04/15 18:53:36;;;;;;;;;19.67;17.67;;;;;;;;5038321;28;45193;-59
2023/04/15 18:56:02;;;;;;;;;20.33;20.33;;;;;;;;5020681;28;45516;-59
2023/04/15 18:58:27;;;;;;;;;24.33;21.00;;;;;;;;5036981;28;45826;-59
2023/04/15 19:00:53;;;;;;;;;21.33;20.33;;;;;;;;5035026;28;45999;-59
2023/04/15 19:03:18;;;;;;;;;20.67;20.67;;;;;;;;5035589;28;45450;-59
2023/04/15 19:05:43;;;;;;;;;23.00;20.00;;;;;;;;5021216;28;45698;-59
2023/04/15 19:08:09;;;;;;;;;22.00;22.00;;;;;;;;5035493;28;45439;-59
2023/04/15 19:10:34;;;;;;;;;24.00;22.33;;;;;;;;5038594;28;46225;-59
2023/04/15 19:12:59;;;;;;;;;28.00;24.33;;;;;;;;5033226;28;45455;-60
2023/04/15 19:15:25;;;;;;;;;26.67;24.33;;;;;;;;5034314;28;45416;-59
2023/04/15 19:17:50;;;;;;;;;23.33;21.67;;;;;;;;5037163;28;45446;-59
2023/04/15 19:20:15;;;;;;;;;24.00;24.00;;;;;;;;5033091;28;45981;-59
2023/04/15 19:22:41;;;;;;;;;23.33;21.00;;;;;;;;5039450;28;45455;-59
2023/04/15 19:25:07;;;;;;;;;21.33;21.33;;;;;;;;5033118;28;45559;-59
2023/04/15 19:27:32;;;;;;;;;25.00;22.67;;;;;;;;5032263;28;45388;-61
2023/04/15 19:29:58;;;;;;;;;28.00;24.00;;;;;;;;5041868;28;45482;-59